sensor_id;sensor_type;location;lat;lon;timestamp;P1;durP1;ratioP1;P2;durP2;ratioP2
11344;SDS011;5727;42.600;23.028;2023-06-10T00:01:37;5.03;;;4.00;;
11344;SDS011;5727;42.600;23.028;2023-06-10T00:04:04;5.07;;;4.67;;
11344;SDS011;5727;42.600;23.028;2023-06-10T00:06:31;4.60;;;4.20;;
11344;SDS011;5727;42.600;23.028;2023-06-10T00:09:00;6.67;;;4.47;;
11344;SDS011;5727;42.600;23.028;2023-06-10T00:11:29;5.93;;;4.33;;
11344;SDS011;5727;42.600;23.028;2023-06-10T00:13:56;5.33;;;4.33;;
11344;SDS011;5727;42.600;23.028;2023-06-10T00:16:23;5.93;;;4.10;;
11344;SDS011;5727;42.600;23.028;2023-06-10T00:18:51;4.40;;;4.00;;
11344;SDS011;5727;42.600;23.028;2023-06-10T00:21:20;4.27;;;3.83;;
11344;SDS011;5727;42.600;23.028;2023-06-10T00:23:49;4.90;;;4.40;;
11344;SDS011;5727;42.600;23.028;2023-06-10T00:26:16;5.63;;;4.10;;
11344;SDS011;5727;42.600;23.028;2023-06-10T00:28:43;7.67;;;4.03;;
11344;SDS011;5727;42.600;23.028;2023-06-10T00:31:10;6.93;;;3.83;;
11344;SDS011;5727;42.600;23.028;2023-06-10T00:33:37;4.30;;;3.80;;
11344;SDS011;5727;42.600;23.028;2023-06-10T00:36:05;7.93;;;3.93;;
11344;SDS011;5727;42.600;23.028;2023-06-10T00:38:32;5.30;;;4.03;;
11344;SDS011;5727;42.600;23.028;2023-06-10T00:40:59;8.43;;;4.87;;
11344;SDS011;5727;42.600;23.028;2023-06-10T00:43:26;7.20;;;4.70;;
11344;SDS011;5727;42.600;23.028;2023-06-10T00:45:53;4.67;;;4.17;;
11344;SDS011;5727;42.600;23.028;2023-06-10T00:48:20;7.47;;;4.00;;
11344;SDS011;5727;42.600;23.028;2023-06-10T00:50:47;8.23;;;4.33;;
11344;SDS011;5727;42.600;23.028;2023-06-10T00:53:16;7.33;;;4.60;;
11344;SDS011;5727;42.600;23.028;2023-06-10T00:55:43;3.87;;;3.47;;
11344;SDS011;5727;42.600;23.028;2023-06-10T00:58:10;6.13;;;3.80;;
11344;SDS011;5727;42.600;23.028;2023-06-10T01:00:37;4.83;;;3.70;;
11344;SDS011;5727;42.600;23.028;2023-06-10T01:03:04;6.70;;;3.97;;
11344;SDS011;5727;42.600;23.028;2023-06-10T01:05:32;5.37;;;4.27;;
11344;SDS011;5727;42.600;23.028;2023-06-10T01:08:01;7.20;;;3.90;;
11344;SDS011;5727;42.600;23.028;2023-06-10T01:10:36;7.83;;;4.07;;
11344;SDS011;5727;42.600;23.028;2023-06-10T01:13:07;4.27;;;3.60;;
11344;SDS011;5727;42.600;23.028;2023-06-10T01:15:37;5.03;;;3.77;;
11344;SDS011;5727;42.600;23.028;2023-06-10T01:18:05;6.80;;;3.40;;
11344;SDS011;5727;42.600;23.028;2023-06-10T01:20:34;3.70;;;3.40;;
11344;SDS011;5727;42.600;23.028;2023-06-10T01:23:06;4.37;;;3.97;;
11344;SDS011;5727;42.600;23.028;2023-06-10T01:25:34;6.40;;;3.90;;
11344;SDS011;5727;42.600;23.028;2023-06-10T01:28:04;5.77;;;4.10;;
11344;SDS011;5727;42.600;23.028;2023-06-10T01:30:37;5.73;;;4.10;;
11344;SDS011;5727;42.600;23.028;2023-06-10T01:33:12;5.97;;;4.40;;
11344;SDS011;5727;42.600;23.028;2023-06-10T01:35:43;9.23;;;4.67;;
11344;SDS011;5727;42.600;23.028;2023-06-10T01:38:12;5.53;;;4.57;;
11344;SDS011;5727;42.600;23.028;2023-06-10T01:40:41;6.10;;;4.30;;
11344;SDS011;5727;42.600;23.028;2023-06-10T01:43:08;5.90;;;4.63;;
11344;SDS011;5727;42.600;23.028;2023-06-10T01:45:35;4.43;;;4.00;;
11344;SDS011;5727;42.600;23.028;2023-06-10T01:48:02;4.80;;;4.40;;
11344;SDS011;5727;42.600;23.028;2023-06-10T01:50:29;5.20;;;4.57;;
11344;SDS011;5727;42.600;23.028;2023-06-10T01:52:56;7.33;;;4.50;;
11344;SDS011;5727;42.600;23.028;2023-06-10T01:55:24;5.10;;;4.20;;
11344;SDS011;5727;42.600;23.028;2023-06-10T01:57:51;5.03;;;3.77;;
11344;SDS011;5727;42.600;23.028;2023-06-10T02:00:18;4.53;;;3.57;;
11344;SDS011;5727;42.600;23.028;2023-06-10T02:02:45;4.77;;;4.33;;
11344;SDS011;5727;42.600;23.028;2023-06-10T02:05:12;10.20;;;4.20;;
11344;SDS011;5727;42.600;23.028;2023-06-10T02:07:39;5.47;;;4.43;;
11344;SDS011;5727;42.600;23.028;2023-06-10T02:10:06;4.20;;;3.80;;
11344;SDS011;5727;42.600;23.028;2023-06-10T02:12:35;5.67;;;4.00;;
11344;SDS011;5727;42.600;23.028;2023-06-10T02:15:02;5.10;;;4.13;;
11344;SDS011;5727;42.600;23.028;2023-06-10T02:17:29;5.43;;;4.57;;
11344;SDS011;5727;42.600;23.028;2023-06-10T02:19:57;6.30;;;4.00;;
11344;SDS011;5727;42.600;23.028;2023-06-10T02:22:25;4.77;;;4.30;;
11344;SDS011;5727;42.600;23.028;2023-06-10T02:24:51;5.93;;;4.00;;
11344;SDS011;5727;42.600;23.028;2023-06-10T02:27:18;6.07;;;4.47;;
11344;SDS011;5727;42.600;23.028;2023-06-10T02:29:47;4.90;;;3.87;;
11344;SDS011;5727;42.600;23.028;2023-06-10T02:32:13;8.33;;;4.60;;
11344;SDS011;5727;42.600;23.028;2023-06-10T02:34:41;6.23;;;4.60;;
11344;SDS011;5727;42.600;23.028;2023-06-10T02:37:09;4.87;;;3.93;;
11344;SDS011;5727;42.600;23.028;2023-06-10T02:39:36;4.33;;;3.93;;
11344;SDS011;5727;42.600;23.028;2023-06-10T02:42:03;7.53;;;4.27;;
11344;SDS011;5727;42.600;23.028;2023-06-10T02:44:30;7.20;;;4.87;;
11344;SDS011;5727;42.600;23.028;2023-06-10T02:46:58;4.97;;;4.47;;
11344;SDS011;5727;42.600;23.028;2023-06-10T02:49:25;6.13;;;4.60;;
11344;SDS011;5727;42.600;23.028;2023-06-10T02:51:53;5.77;;;4.57;;
11344;SDS011;5727;42.600;23.028;2023-06-10T02:54:21;8.87;;;4.67;;
11344;SDS011;5727;42.600;23.028;2023-06-10T02:56:48;5.17;;;4.67;;
11344;SDS011;5727;42.600;23.028;2023-06-10T02:59:15;5.37;;;4.87;;
11344;SDS011;5727;42.600;23.028;2023-06-10T03:01:42;5.97;;;5.37;;
11344;SDS011;5727;42.600;23.028;2023-06-10T03:04:10;5.57;;;5.03;;
11344;SDS011;5727;42.600;23.028;2023-06-10T03:06:38;5.97;;;5.33;;
11344;SDS011;5727;42.600;23.028;2023-06-10T03:09:06;6.17;;;4.90;;
11344;SDS011;5727;42.600;23.028;2023-06-10T03:11:33;5.30;;;4.77;;
11344;SDS011;5727;42.600;23.028;2023-06-10T03:14:00;5.43;;;4.93;;
11344;SDS011;5727;42.600;23.028;2023-06-10T03:16:26;5.47;;;4.93;;
11344;SDS011;5727;42.600;23.028;2023-06-10T03:18:55;4.90;;;4.30;;
11344;SDS011;5727;42.600;23.028;2023-06-10T03:21:23;6.40;;;4.70;;
11344;SDS011;5727;42.600;23.028;2023-06-10T03:23:50;5.77;;;4.90;;
11344;SDS011;5727;42.600;23.028;2023-06-10T03:26:17;5.20;;;4.70;;
11344;SDS011;5727;42.600;23.028;2023-06-10T03:28:46;6.67;;;4.13;;
11344;SDS011;5727;42.600;23.028;2023-06-10T03:31:13;6.53;;;4.33;;
11344;SDS011;5727;42.600;23.028;2023-06-10T03:33:41;8.67;;;4.53;;
11344;SDS011;5727;42.600;23.028;2023-06-10T03:36:08;4.90;;;4.40;;
11344;SDS011;5727;42.600;23.028;2023-06-10T03:38:36;6.07;;;4.40;;
11344;SDS011;5727;42.600;23.028;2023-06-10T03:41:03;7.40;;;4.63;;
11344;SDS011;5727;42.600;23.028;2023-06-10T03:43:30;5.30;;;4.60;;
11344;SDS011;5727;42.600;23.028;2023-06-10T03:45:57;6.80;;;6.10;;
11344;SDS011;5727;42.600;23.028;2023-06-10T03:48:24;8.03;;;5.20;;
11344;SDS011;5727;42.600;23.028;2023-06-10T03:50:50;7.30;;;5.33;;
11344;SDS011;5727;42.600;23.028;2023-06-10T03:53:17;7.33;;;5.20;;
11344;SDS011;5727;42.600;23.028;2023-06-10T03:55:45;6.70;;;6.00;;
11344;SDS011;5727;42.600;23.028;2023-06-10T03:58:13;7.80;;;5.83;;
11344;SDS011;5727;42.600;23.028;2023-06-10T04:00:40;6.93;;;5.73;;
11344;SDS011;5727;42.600;23.028;2023-06-10T04:03:07;7.17;;;5.30;;
11344;SDS011;5727;42.600;23.028;2023-06-10T04:05:39;7.10;;;5.63;;
11344;SDS011;5727;42.600;23.028;2023-06-10T04:08:06;7.77;;;5.40;;
11344;SDS011;5727;42.600;23.028;2023-06-10T04:10:33;7.83;;;6.37;;
11344;SDS011;5727;42.600;23.028;2023-06-10T04:13:01;12.17;;;6.40;;
11344;SDS011;5727;42.600;23.028;2023-06-10T04:15:29;7.67;;;5.50;;
11344;SDS011;5727;42.600;23.028;2023-06-10T04:17:57;8.83;;;6.83;;
11344;SDS011;5727;42.600;23.028;2023-06-10T04:20:24;7.77;;;6.23;;
11344;SDS011;5727;42.600;23.028;2023-06-10T04:22:51;8.93;;;6.83;;
11344;SDS011;5727;42.600;23.028;2023-06-10T04:25:18;9.07;;;7.10;;
11344;SDS011;5727;42.600;23.028;2023-06-10T04:27:45;9.33;;;6.93;;
11344;SDS011;5727;42.600;23.028;2023-06-10T04:30:14;9.80;;;6.23;;
11344;SDS011;5727;42.600;23.028;2023-06-10T04:32:41;12.33;;;7.80;;
11344;SDS011;5727;42.600;23.028;2023-06-10T04:35:08;25.63;;;8.20;;
11344;SDS011;5727;42.600;23.028;2023-06-10T04:37:37;21.53;;;10.53;;
11344;SDS011;5727;42.600;23.028;2023-06-10T04:40:05;22.77;;;9.40;;
11344;SDS011;5727;42.600;23.028;2023-06-10T04:42:32;20.63;;;9.70;;
11344;SDS011;5727;42.600;23.028;2023-06-10T04:44:59;23.13;;;8.70;;
11344;SDS011;5727;42.600;23.028;2023-06-10T04:47:27;21.23;;;9.17;;
11344;SDS011;5727;42.600;23.028;2023-06-10T04:49:54;19.13;;;8.63;;
11344;SDS011;5727;42.600;23.028;2023-06-10T04:52:21;17.40;;;8.33;;
11344;SDS011;5727;42.600;23.028;2023-06-10T04:54:47;17.27;;;8.07;;
11344;SDS011;5727;42.600;23.028;2023-06-10T04:57:14;15.30;;;7.63;;
11344;SDS011;5727;42.600;23.028;2023-06-10T04:59:41;13.37;;;7.70;;
11344;SDS011;5727;42.600;23.028;2023-06-10T05:02:08;17.10;;;8.60;;
11344;SDS011;5727;42.600;23.028;2023-06-10T05:04:36;14.77;;;7.63;;
11344;SDS011;5727;42.600;23.028;2023-06-10T05:07:03;12.03;;;7.30;;
11344;SDS011;5727;42.600;23.028;2023-06-10T05:09:30;12.27;;;7.70;;
11344;SDS011;5727;42.600;23.028;2023-06-10T05:11:57;13.10;;;7.47;;
11344;SDS011;5727;42.600;23.028;2023-06-10T05:14:24;19.13;;;8.00;;
11344;SDS011;5727;42.600;23.028;2023-06-10T05:16:51;9.20;;;7.27;;
11344;SDS011;5727;42.600;23.028;2023-06-10T05:19:18;10.40;;;6.70;;
11344;SDS011;5727;42.600;23.028;2023-06-10T05:21:46;12.27;;;6.93;;
11344;SDS011;5727;42.600;23.028;2023-06-10T05:24:13;9.77;;;7.63;;
11344;SDS011;5727;42.600;23.028;2023-06-10T05:26:39;8.93;;;6.77;;
11344;SDS011;5727;42.600;23.028;2023-06-10T05:29:07;8.97;;;7.40;;
11344;SDS011;5727;42.600;23.028;2023-06-10T05:31:34;9.67;;;7.03;;
11344;SDS011;5727;42.600;23.028;2023-06-10T05:34:01;9.70;;;7.13;;
11344;SDS011;5727;42.600;23.028;2023-06-10T05:36:28;8.07;;;6.70;;
11344;SDS011;5727;42.600;23.028;2023-06-10T05:38:56;10.83;;;7.63;;
11344;SDS011;5727;42.600;23.028;2023-06-10T05:41:22;9.30;;;6.97;;
11344;SDS011;5727;42.600;23.028;2023-06-10T05:43:50;7.80;;;6.60;;
11344;SDS011;5727;42.600;23.028;2023-06-10T05:46:17;8.83;;;6.70;;
11344;SDS011;5727;42.600;23.028;2023-06-10T05:48:44;10.73;;;6.43;;
11344;SDS011;5727;42.600;23.028;2023-06-10T05:51:10;12.53;;;7.53;;
11344;SDS011;5727;42.600;23.028;2023-06-10T05:53:37;7.87;;;6.50;;
11344;SDS011;5727;42.600;23.028;2023-06-10T05:56:06;9.07;;;6.80;;
11344;SDS011;5727;42.600;23.028;2023-06-10T05:58:33;8.37;;;6.50;;
11344;SDS011;5727;42.600;23.028;2023-06-10T06:01:01;9.00;;;6.40;;
11344;SDS011;5727;42.600;23.028;2023-06-10T06:03:28;7.10;;;6.10;;
11344;SDS011;5727;42.600;23.028;2023-06-10T06:05:55;10.20;;;6.07;;
11344;SDS011;5727;42.600;23.028;2023-06-10T06:08:21;9.97;;;6.27;;
11344;SDS011;5727;42.600;23.028;2023-06-10T06:10:49;9.27;;;5.87;;
11344;SDS011;5727;42.600;23.028;2023-06-10T06:13:18;7.97;;;6.27;;
11344;SDS011;5727;42.600;23.028;2023-06-10T06:15:44;7.93;;;6.27;;
11344;SDS011;5727;42.600;23.028;2023-06-10T06:18:11;9.87;;;6.10;;
11344;SDS011;5727;42.600;23.028;2023-06-10T06:20:38;9.87;;;5.97;;
11344;SDS011;5727;42.600;23.028;2023-06-10T06:23:05;8.67;;;5.37;;
11344;SDS011;5727;42.600;23.028;2023-06-10T06:25:33;8.23;;;5.60;;
11344;SDS011;5727;42.600;23.028;2023-06-10T06:28:01;8.00;;;6.23;;
11344;SDS011;5727;42.600;23.028;2023-06-10T06:30:29;8.13;;;5.37;;
11344;SDS011;5727;42.600;23.028;2023-06-10T06:32:56;10.50;;;5.63;;
11344;SDS011;5727;42.600;23.028;2023-06-10T06:35:22;8.33;;;6.37;;
11344;SDS011;5727;42.600;23.028;2023-06-10T06:37:49;8.13;;;5.50;;
11344;SDS011;5727;42.600;23.028;2023-06-10T06:40:16;9.20;;;5.80;;
11344;SDS011;5727;42.600;23.028;2023-06-10T06:42:42;8.40;;;5.27;;
11344;SDS011;5727;42.600;23.028;2023-06-10T06:45:09;6.90;;;5.33;;
11344;SDS011;5727;42.600;23.028;2023-06-10T06:47:38;6.50;;;5.10;;
11344;SDS011;5727;42.600;23.028;2023-06-10T06:50:05;4.90;;;4.40;;
11344;SDS011;5727;42.600;23.028;2023-06-10T06:52:32;6.47;;;4.63;;
11344;SDS011;5727;42.600;23.028;2023-06-10T06:54:59;5.03;;;4.57;;
11344;SDS011;5727;42.600;23.028;2023-06-10T06:57:25;8.30;;;4.90;;
11344;SDS011;5727;42.600;23.028;2023-06-10T06:59:52;7.57;;;4.83;;
11344;SDS011;5727;42.600;23.028;2023-06-10T07:02:19;6.63;;;4.63;;
11344;SDS011;5727;42.600;23.028;2023-06-10T07:04:47;8.40;;;4.87;;
11344;SDS011;5727;42.600;23.028;2023-06-10T07:07:14;4.87;;;4.30;;
11344;SDS011;5727;42.600;23.028;2023-06-10T07:09:42;7.47;;;4.23;;
11344;SDS011;5727;42.600;23.028;2023-06-10T07:12:09;6.07;;;4.07;;
11344;SDS011;5727;42.600;23.028;2023-06-10T07:14:36;6.03;;;4.40;;
11344;SDS011;5727;42.600;23.028;2023-06-10T07:17:02;5.43;;;3.90;;
11344;SDS011;5727;42.600;23.028;2023-06-10T07:19:29;6.37;;;4.20;;
11344;SDS011;5727;42.600;23.028;2023-06-10T07:21:57;5.13;;;4.23;;
11344;SDS011;5727;42.600;23.028;2023-06-10T07:24:24;6.87;;;3.67;;
11344;SDS011;5727;42.600;23.028;2023-06-10T07:26:51;8.63;;;4.10;;
11344;SDS011;5727;42.600;23.028;2023-06-10T07:29:18;7.53;;;4.47;;
11344;SDS011;5727;42.600;23.028;2023-06-10T07:31:45;5.90;;;3.67;;
11344;SDS011;5727;42.600;23.028;2023-06-10T07:34:11;4.57;;;3.77;;
11344;SDS011;5727;42.600;23.028;2023-06-10T07:36:38;3.10;;;2.63;;
11344;SDS011;5727;42.600;23.028;2023-06-10T07:39:06;4.60;;;3.00;;
11344;SDS011;5727;42.600;23.028;2023-06-10T07:41:33;4.23;;;3.20;;
11344;SDS011;5727;42.600;23.028;2023-06-10T07:44:00;4.50;;;3.30;;
11344;SDS011;5727;42.600;23.028;2023-06-10T07:46:27;6.73;;;3.60;;
11344;SDS011;5727;42.600;23.028;2023-06-10T07:48:54;3.47;;;2.80;;
11344;SDS011;5727;42.600;23.028;2023-06-10T07:51:21;4.03;;;3.63;;
11344;SDS011;5727;42.600;23.028;2023-06-10T07:53:48;5.63;;;3.50;;
11344;SDS011;5727;42.600;23.028;2023-06-10T07:56:16;3.90;;;3.30;;
11344;SDS011;5727;42.600;23.028;2023-06-10T07:58:43;6.30;;;2.97;;
11344;SDS011;5727;42.600;23.028;2023-06-10T08:01:10;5.60;;;3.03;;
11344;SDS011;5727;42.600;23.028;2023-06-10T08:03:37;5.47;;;3.40;;
11344;SDS011;5727;42.600;23.028;2023-06-10T08:06:03;5.67;;;3.27;;
11344;SDS011;5727;42.600;23.028;2023-06-10T08:08:30;5.83;;;3.13;;
11344;SDS011;5727;42.600;23.028;2023-06-10T08:10:57;5.23;;;3.23;;
11344;SDS011;5727;42.600;23.028;2023-06-10T08:13:25;5.63;;;3.00;;
11344;SDS011;5727;42.600;23.028;2023-06-10T08:15:52;3.40;;;2.53;;
11344;SDS011;5727;42.600;23.028;2023-06-10T08:18:20;3.77;;;2.90;;
11344;SDS011;5727;42.600;23.028;2023-06-10T08:20:47;4.00;;;2.83;;
11344;SDS011;5727;42.600;23.028;2023-06-10T08:23:14;4.40;;;2.40;;
11344;SDS011;5727;42.600;23.028;2023-06-10T08:25:41;3.10;;;2.80;;
11344;SDS011;5727;42.600;23.028;2023-06-10T08:28:08;5.57;;;3.40;;
11344;SDS011;5727;42.600;23.028;2023-06-10T08:30:36;3.23;;;2.90;;
11344;SDS011;5727;42.600;23.028;2023-06-10T08:33:03;5.70;;;2.53;;
11344;SDS011;5727;42.600;23.028;2023-06-10T08:35:30;4.20;;;2.47;;
11344;SDS011;5727;42.600;23.028;2023-06-10T08:37:57;3.13;;;2.17;;
11344;SDS011;5727;42.600;23.028;2023-06-10T08:40:26;2.53;;;1.93;;
11344;SDS011;5727;42.600;23.028;2023-06-10T08:42:53;3.73;;;2.07;;
11344;SDS011;5727;42.600;23.028;2023-06-10T08:45:27;3.83;;;2.10;;
11344;SDS011;5727;42.600;23.028;2023-06-10T08:47:59;2.40;;;1.60;;
11344;SDS011;5727;42.600;23.028;2023-06-10T08:50:26;3.03;;;1.80;;
11344;SDS011;5727;42.600;23.028;2023-06-10T08:52:57;2.83;;;1.90;;
11344;SDS011;5727;42.600;23.028;2023-06-10T08:55:27;5.10;;;2.00;;
11344;SDS011;5727;42.600;23.028;2023-06-10T08:57:57;1.93;;;1.43;;
11344;SDS011;5727;42.600;23.028;2023-06-10T09:00:25;3.90;;;2.10;;
11344;SDS011;5727;42.600;23.028;2023-06-10T09:02:53;2.63;;;1.90;;
11344;SDS011;5727;42.600;23.028;2023-06-10T09:05:22;6.13;;;1.83;;
11344;SDS011;5727;42.600;23.028;2023-06-10T09:07:50;4.67;;;1.90;;
11344;SDS011;5727;42.600;23.028;2023-06-10T09:10:19;3.10;;;1.53;;
11344;SDS011;5727;42.600;23.028;2023-06-10T09:12:46;2.93;;;1.80;;
11344;SDS011;5727;42.600;23.028;2023-06-10T09:15:13;4.43;;;1.83;;
11344;SDS011;5727;42.600;23.028;2023-06-10T09:17:42;3.23;;;1.90;;
11344;SDS011;5727;42.600;23.028;2023-06-10T09:20:10;3.57;;;1.80;;
11344;SDS011;5727;42.600;23.028;2023-06-10T09:22:39;2.23;;;1.87;;
11344;SDS011;5727;42.600;23.028;2023-06-10T09:25:09;3.10;;;1.83;;
11344;SDS011;5727;42.600;23.028;2023-06-10T09:27:44;2.57;;;2.20;;
11344;SDS011;5727;42.600;23.028;2023-06-10T09:30:23;2.30;;;1.83;;
11344;SDS011;5727;42.600;23.028;2023-06-10T09:32:52;3.77;;;1.67;;
11344;SDS011;5727;42.600;23.028;2023-06-10T09:35:21;2.70;;;1.50;;
11344;SDS011;5727;42.600;23.028;2023-06-10T09:37:51;1.80;;;1.40;;
11344;SDS011;5727;42.600;23.028;2023-06-10T09:40:18;2.87;;;1.60;;
11344;SDS011;5727;42.600;23.028;2023-06-10T09:42:46;2.40;;;1.50;;
11344;SDS011;5727;42.600;23.028;2023-06-10T09:45:18;2.53;;;1.70;;
11344;SDS011;5727;42.600;23.028;2023-06-10T09:47:45;3.10;;;1.53;;
11344;SDS011;5727;42.600;23.028;2023-06-10T09:50:12;2.23;;;1.63;;
11344;SDS011;5727;42.600;23.028;2023-06-10T09:52:39;2.13;;;1.50;;
11344;SDS011;5727;42.600;23.028;2023-06-10T09:55:09;2.47;;;1.40;;
11344;SDS011;5727;42.600;23.028;2023-06-10T09:57:36;2.83;;;1.53;;
11344;SDS011;5727;42.600;23.028;2023-06-10T10:00:05;2.00;;;1.50;;
11344;SDS011;5727;42.600;23.028;2023-06-10T10:02:33;3.63;;;1.70;;
11344;SDS011;5727;42.600;23.028;2023-06-10T10:05:13;2.90;;;1.30;;
11344;SDS011;5727;42.600;23.028;2023-06-10T10:07:41;2.03;;;1.63;;
11344;SDS011;5727;42.600;23.028;2023-06-10T10:10:10;1.70;;;1.27;;
11344;SDS011;5727;42.600;23.028;2023-06-10T10:12:38;3.63;;;1.50;;
11344;SDS011;5727;42.600;23.028;2023-06-10T10:15:06;2.27;;;1.40;;
11344;SDS011;5727;42.600;23.028;2023-06-10T10:17:34;1.97;;;1.30;;
11344;SDS011;5727;42.600;23.028;2023-06-10T10:20:08;2.60;;;1.40;;
11344;SDS011;5727;42.600;23.028;2023-06-10T10:22:41;2.93;;;1.50;;
11344;SDS011;5727;42.600;23.028;2023-06-10T10:25:13;2.70;;;1.63;;
11344;SDS011;5727;42.600;23.028;2023-06-10T10:27:43;1.80;;;1.13;;
11344;SDS011;5727;42.600;23.028;2023-06-10T10:30:16;3.20;;;1.80;;
11344;SDS011;5727;42.600;23.028;2023-06-10T10:32:50;2.60;;;1.63;;
11344;SDS011;5727;42.600;23.028;2023-06-10T10:35:23;2.63;;;1.80;;
11344;SDS011;5727;42.600;23.028;2023-06-10T10:37:51;3.97;;;1.67;;
11344;SDS011;5727;42.600;23.028;2023-06-10T10:40:20;2.40;;;1.93;;
11344;SDS011;5727;42.600;23.028;2023-06-10T10:42:48;3.03;;;1.30;;
11344;SDS011;5727;42.600;23.028;2023-06-10T10:45:16;2.70;;;1.90;;
11344;SDS011;5727;42.600;23.028;2023-06-10T10:47:43;4.40;;;1.87;;
11344;SDS011;5727;42.600;23.028;2023-06-10T10:50:15;2.80;;;2.13;;
11344;SDS011;5727;42.600;23.028;2023-06-10T10:52:50;3.17;;;1.90;;
11344;SDS011;5727;42.600;23.028;2023-06-10T10:55:21;2.80;;;1.67;;
11344;SDS011;5727;42.600;23.028;2023-06-10T10:57:54;3.03;;;2.00;;
11344;SDS011;5727;42.600;23.028;2023-06-10T11:00:28;3.17;;;2.10;;
11344;SDS011;5727;42.600;23.028;2023-06-10T11:02:59;3.57;;;1.90;;
11344;SDS011;5727;42.600;23.028;2023-06-10T11:05:32;3.97;;;2.33;;
11344;SDS011;5727;42.600;23.028;2023-06-10T11:08:03;2.17;;;1.80;;
11344;SDS011;5727;42.600;23.028;2023-06-10T11:10:32;3.50;;;1.87;;
11344;SDS011;5727;42.600;23.028;2023-06-10T11:12:59;3.60;;;1.70;;
11344;SDS011;5727;42.600;23.028;2023-06-10T11:15:27;2.00;;;1.30;;
11344;SDS011;5727;42.600;23.028;2023-06-10T11:18:14;2.20;;;1.60;;
11344;SDS011;5727;42.600;23.028;2023-06-10T11:20:53;2.70;;;1.63;;
11344;SDS011;5727;42.600;23.028;2023-06-10T11:23:32;2.13;;;1.90;;
11344;SDS011;5727;42.600;23.028;2023-06-10T11:26:11;2.10;;;1.80;;
11344;SDS011;5727;42.600;23.028;2023-06-10T11:29:01;3.67;;;1.97;;
11344;SDS011;5727;42.600;23.028;2023-06-10T11:31:30;3.57;;;1.90;;
11344;SDS011;5727;42.600;23.028;2023-06-10T11:33:58;2.03;;;1.83;;
11344;SDS011;5727;42.600;23.028;2023-06-10T11:36:27;2.30;;;1.80;;
11344;SDS011;5727;42.600;23.028;2023-06-10T11:38:55;3.07;;;2.00;;
11344;SDS011;5727;42.600;23.028;2023-06-10T11:41:25;2.30;;;2.03;;
11344;SDS011;5727;42.600;23.028;2023-06-10T11:43:52;2.77;;;2.17;;
11344;SDS011;5727;42.600;23.028;2023-06-10T11:46:21;2.70;;;2.40;;
11344;SDS011;5727;42.600;23.028;2023-06-10T11:48:51;2.40;;;2.20;;
11344;SDS011;5727;42.600;23.028;2023-06-10T11:51:18;2.60;;;2.13;;
11344;SDS011;5727;42.600;23.028;2023-06-10T11:53:45;2.83;;;2.23;;
11344;SDS011;5727;42.600;23.028;2023-06-10T11:56:11;2.97;;;2.30;;
11344;SDS011;5727;42.600;23.028;2023-06-10T11:58:40;3.17;;;2.40;;
11344;SDS011;5727;42.600;23.028;2023-06-10T12:01:11;2.80;;;2.27;;
11344;SDS011;5727;42.600;23.028;2023-06-10T12:03:46;3.07;;;2.43;;
11344;SDS011;5727;42.600;23.028;2023-06-10T12:06:12;2.93;;;2.50;;
11344;SDS011;5727;42.600;23.028;2023-06-10T12:08:41;2.97;;;2.40;;
11344;SDS011;5727;42.600;23.028;2023-06-10T12:11:08;4.13;;;2.47;;
11344;SDS011;5727;42.600;23.028;2023-06-10T12:13:35;2.80;;;2.10;;
11344;SDS011;5727;42.600;23.028;2023-06-10T12:16:07;2.70;;;2.33;;
11344;SDS011;5727;42.600;23.028;2023-06-10T12:18:35;3.13;;;2.47;;
11344;SDS011;5727;42.600;23.028;2023-06-10T12:21:02;2.40;;;2.20;;
11344;SDS011;5727;42.600;23.028;2023-06-10T12:23:29;2.90;;;2.53;;
11344;SDS011;5727;42.600;23.028;2023-06-10T12:25:57;5.90;;;2.23;;
11344;SDS011;5727;42.600;23.028;2023-06-10T12:28:26;3.73;;;2.40;;
11344;SDS011;5727;42.600;23.028;2023-06-10T12:31:05;3.90;;;2.50;;
11344;SDS011;5727;42.600;23.028;2023-06-10T12:33:34;3.57;;;2.93;;
11344;SDS011;5727;42.600;23.028;2023-06-10T12:36:01;3.27;;;2.43;;
11344;SDS011;5727;42.600;23.028;2023-06-10T12:38:27;3.27;;;1.83;;
11344;SDS011;5727;42.600;23.028;2023-06-10T12:40:54;3.40;;;2.40;;
11344;SDS011;5727;42.600;23.028;2023-06-10T12:43:27;3.23;;;2.23;;
11344;SDS011;5727;42.600;23.028;2023-06-10T12:45:54;4.10;;;2.40;;
11344;SDS011;5727;42.600;23.028;2023-06-10T12:48:23;2.33;;;2.13;;
11344;SDS011;5727;42.600;23.028;2023-06-10T12:50:51;3.10;;;2.23;;
11344;SDS011;5727;42.600;23.028;2023-06-10T12:53:19;3.53;;;2.37;;
11344;SDS011;5727;42.600;23.028;2023-06-10T12:55:48;3.33;;;2.33;;
11344;SDS011;5727;42.600;23.028;2023-06-10T12:58:14;2.97;;;2.40;;
11344;SDS011;5727;42.600;23.028;2023-06-10T13:00:41;3.60;;;1.80;;
11344;SDS011;5727;42.600;23.028;2023-06-10T13:03:08;2.78;;;2.20;;
11344;SDS011;5727;42.600;23.028;2023-06-10T13:05:37;3.15;;;2.17;;
11344;SDS011;5727;42.600;23.028;2023-06-10T13:08:04;2.83;;;2.03;;
11344;SDS011;5727;42.600;23.028;2023-06-10T13:10:32;3.45;;;1.92;;
11344;SDS011;5727;42.600;23.028;2023-06-10T13:12:59;8.30;;;2.30;;
11344;SDS011;5727;42.600;23.028;2023-06-10T13:15:26;10.95;;;2.72;;
11344;SDS011;5727;42.600;23.028;2023-06-10T13:17:54;6.13;;;2.33;;
11344;SDS011;5727;42.600;23.028;2023-06-10T13:20:20;4.27;;;2.37;;
11344;SDS011;5727;42.600;23.028;2023-06-10T13:22:49;3.17;;;2.20;;
11344;SDS011;5727;42.600;23.028;2023-06-10T13:25:16;3.97;;;2.30;;
11344;SDS011;5727;42.600;23.028;2023-06-10T13:27:42;3.40;;;2.20;;
11344;SDS011;5727;42.600;23.028;2023-06-10T13:30:09;3.80;;;2.43;;
11344;SDS011;5727;42.600;23.028;2023-06-10T13:32:37;4.37;;;2.40;;
11344;SDS011;5727;42.600;23.028;2023-06-10T13:35:04;4.37;;;2.50;;
11344;SDS011;5727;42.600;23.028;2023-06-10T13:37:32;3.93;;;2.60;;
11344;SDS011;5727;42.600;23.028;2023-06-10T13:40:01;2.90;;;2.60;;
11344;SDS011;5727;42.600;23.028;2023-06-10T13:42:28;4.23;;;2.63;;
11344;SDS011;5727;42.600;23.028;2023-06-10T13:44:55;4.33;;;2.70;;
11344;SDS011;5727;42.600;23.028;2023-06-10T13:47:23;3.80;;;3.07;;
11344;SDS011;5727;42.600;23.028;2023-06-10T13:49:50;3.77;;;3.07;;
11344;SDS011;5727;42.600;23.028;2023-06-10T13:52:17;4.03;;;3.27;;
11344;SDS011;5727;42.600;23.028;2023-06-10T13:54:43;7.57;;;4.10;;
11344;SDS011;5727;42.600;23.028;2023-06-10T13:57:11;4.83;;;3.37;;
11344;SDS011;5727;42.600;23.028;2023-06-10T13:59:38;6.17;;;3.83;;
11344;SDS011;5727;42.600;23.028;2023-06-10T14:02:05;7.90;;;4.77;;
11344;SDS011;5727;42.600;23.028;2023-06-10T14:04:32;3.83;;;2.90;;
11344;SDS011;5727;42.600;23.028;2023-06-10T14:06:59;5.10;;;3.23;;
11344;SDS011;5727;42.600;23.028;2023-06-10T14:09:25;5.50;;;3.47;;
11344;SDS011;5727;42.600;23.028;2023-06-10T14:11:52;3.87;;;3.30;;
11344;SDS011;5727;42.600;23.028;2023-06-10T14:14:20;6.67;;;2.83;;
11344;SDS011;5727;42.600;23.028;2023-06-10T14:16:47;5.53;;;3.43;;
11344;SDS011;5727;42.600;23.028;2023-06-10T14:19:14;5.27;;;3.00;;
11344;SDS011;5727;42.600;23.028;2023-06-10T14:21:40;4.70;;;3.20;;
11344;SDS011;5727;42.600;23.028;2023-06-10T14:24:07;4.40;;;2.90;;
11344;SDS011;5727;42.600;23.028;2023-06-10T14:26:34;4.63;;;3.40;;
11344;SDS011;5727;42.600;23.028;2023-06-10T14:29:01;4.00;;;2.80;;
11344;SDS011;5727;42.600;23.028;2023-06-10T14:31:29;5.27;;;3.33;;
11344;SDS011;5727;42.600;23.028;2023-06-10T14:33:56;5.13;;;2.70;;
11344;SDS011;5727;42.600;23.028;2023-06-10T14:36:23;4.90;;;3.73;;
11344;SDS011;5727;42.600;23.028;2023-06-10T14:38:49;6.97;;;3.40;;
11344;SDS011;5727;42.600;23.028;2023-06-10T14:41:16;4.00;;;3.33;;
11344;SDS011;5727;42.600;23.028;2023-06-10T14:43:43;4.77;;;2.93;;
11344;SDS011;5727;42.600;23.028;2023-06-10T14:46:10;4.73;;;3.00;;
11344;SDS011;5727;42.600;23.028;2023-06-10T14:48:38;4.43;;;3.00;;
11344;SDS011;5727;42.600;23.028;2023-06-10T14:51:04;4.43;;;2.63;;